createdAt,value
2022-11-22T00:01:26.972Z,99453.53
2022-11-22T00:03:56.558Z,99433.63
2022-11-22T00:06:24.738Z,99431.91
2022-11-22T00:08:52.867Z,99422.38
2022-11-22T00:11:21.083Z,99416.31
2022-11-22T00:13:49.410Z,99413.69
2022-11-22T00:16:17.641Z,99420.59
2022-11-22T00:18:45.850Z,99409.34
2022-11-22T00:21:15.425Z,99405.88
2022-11-22T00:23:44.250Z,99408.47
2022-11-22T00:26:12.524Z,99400.69
2022-11-22T00:28:40.872Z,99401.56
2022-11-22T00:31:09.246Z,99399.84
2022-11-22T00:33:37.461Z,99392.09
2022-11-22T00:36:06.279Z,99392.09
2022-11-22T00:38:35.907Z,99386.94
2022-11-22T00:41:04.237Z,99383.47
2022-11-22T00:43:32.713Z,99374.78
2022-11-22T00:46:01.337Z,99373.06
2022-11-22T00:48:29.951Z,99374.78
2022-11-22T00:50:58.234Z,99374.81
2022-11-22T00:53:26.996Z,99376.56
2022-11-22T00:55:56.598Z,99368.78
2022-11-22T00:58:24.828Z,99366.22
2022-11-22T01:00:56.452Z,99363.63
2022-11-22T01:03:25.188Z,99370.53
2022-11-22T01:05:53.608Z,99362.78
2022-11-22T01:08:21.895Z,99353.28
2022-11-22T01:10:50.306Z,99355.03
2022-11-22T01:13:19.895Z,99351.56
2022-11-22T01:15:48.135Z,99353.28
2022-11-22T01:18:16.336Z,99349.84
2022-11-22T01:20:44.674Z,99347.22
2022-11-22T01:23:12.965Z,99346.38
2022-11-22T01:25:44.726Z,99345.53
2022-11-22T01:28:13.404Z,99346.38
2022-11-22T01:30:44.431Z,99347.25
2022-11-22T01:33:13.264Z,99344.69
2022-11-22T01:35:41.662Z,99342.09
2022-11-22T01:38:10.480Z,99342.06
2022-11-22T01:40:38.964Z,99342.06
2022-11-22T01:43:16.332Z,99345.53
2022-11-22T01:45:51.709Z,99334.31
2022-11-22T01:48:35.517Z,99342.09
2022-11-22T01:51:08.620Z,99338.63
2022-11-22T01:53:39.779Z,99340.38
2022-11-22T01:56:14.682Z,99341.22
2022-11-22T01:58:46.556Z,99342.97
2022-11-22T02:01:16.409Z,99340.38
2022-11-22T02:03:48.366Z,99342.97
2022-11-22T02:06:18.611Z,99338.66
2022-11-22T02:08:55.214Z,99325.69
2022-11-22T02:11:27.390Z,99330.00
2022-11-22T02:13:58.635Z,99330.00
2022-11-22T02:16:28.265Z,99322.22
2022-11-22T02:18:56.471Z,99312.69
2022-11-22T02:21:24.904Z,99313.59
2022-11-22T02:23:59.747Z,99305.81
2022-11-22T02:26:31.017Z,99316.19
2022-11-22T02:29:06.910Z,99310.13
2022-11-22T02:31:43.469Z,99306.69
2022-11-22T02:34:12.427Z,99297.16
2022-11-22T02:36:45.514Z,99289.38
2022-11-22T02:39:17.512Z,99294.56
2022-11-22T02:41:49.051Z,99285.94
2022-11-22T02:44:17.940Z,99293.72
2022-11-22T02:46:51.660Z,99287.66
2022-11-22T02:49:21.199Z,99286.81
2022-11-22T02:51:49.985Z,99291.97
2022-11-22T02:54:19.868Z,99296.31
2022-11-22T02:56:49.649Z,99291.13
2022-11-22T02:59:17.904Z,99294.59
2022-11-22T03:01:47.472Z,99292.88
2022-11-22T03:04:24.805Z,99287.69
2022-11-22T03:06:58.250Z,99296.31
2022-11-22T03:09:28.643Z,99311.00
2022-11-22T03:11:58.577Z,99317.06
2022-11-22T03:14:27.189Z,99311.00
2022-11-22T03:16:55.688Z,99310.16
2022-11-22T03:19:24.072Z,99306.69
2022-11-22T03:21:52.351Z,99304.09
2022-11-22T03:24:20.833Z,99306.69
2022-11-22T03:26:50.318Z,99305.84
2022-11-22T03:29:20.275Z,99308.41
2022-11-22T03:31:49.207Z,99306.69
2022-11-22T03:34:17.855Z,99307.56
2022-11-22T03:36:46.157Z,99310.16
2022-11-22T03:39:14.421Z,99304.97
2022-11-22T03:41:42.655Z,99307.56
2022-11-22T03:44:10.928Z,99310.16
2022-11-22T03:46:40.487Z,99303.25
2022-11-22T03:49:08.871Z,99301.50
2022-11-22T03:51:37.093Z,99303.25
2022-11-22T03:54:05.770Z,99308.44
2022-11-22T03:56:34.096Z,99312.75
2022-11-22T03:59:02.446Z,99308.44
2022-11-22T04:01:30.925Z,99311.03
2022-11-22T04:04:00.585Z,99313.63
2022-11-22T04:06:28.808Z,99317.09
2022-11-22T04:08:57.012Z,99311.91
2022-11-22T04:11:25.325Z,99318.81
2022-11-22T04:14:11.289Z,99320.53
2022-11-22T04:16:39.533Z,99315.34
2022-11-22T04:19:09.367Z,99314.50
2022-11-22T04:21:36.612Z,99324.00
2022-11-22T04:24:25.278Z,99312.78
2022-11-22T04:26:55.288Z,99311.91
2022-11-22T04:29:24.107Z,99322.28
2022-11-22T04:32:10.643Z,99320.53
2022-11-22T04:34:40.237Z,99310.19
2022-11-22T04:37:08.644Z,99308.44
2022-11-22T04:39:36.970Z,99315.38
2022-11-22T04:42:23.245Z,99304.09
2022-11-22T04:44:51.500Z,99315.38
2022-11-22T04:47:34.392Z,99320.53
2022-11-22T04:50:26.213Z,99317.94
2022-11-22T04:52:55.887Z,99324.88
2022-11-22T04:55:24.528Z,99332.66
2022-11-22T04:57:59.206Z,99331.81
2022-11-22T05:00:29.122Z,99333.53
2022-11-22T05:02:58.312Z,99329.22
2022-11-22T05:05:28.679Z,99329.22
2022-11-22T05:07:57.015Z,99337.88
2022-11-22T05:10:27.055Z,99335.25
2022-11-22T05:12:56.071Z,99335.25
2022-11-22T05:15:24.604Z,99331.81
2022-11-22T05:17:52.925Z,99335.25
2022-11-22T05:20:21.240Z,99330.94
2022-11-22T05:23:08.133Z,99337.84
2022-11-22T05:25:36.352Z,99326.59
2022-11-22T05:28:04.603Z,99328.31
2022-11-22T05:30:32.894Z,99329.22
2022-11-22T05:33:01.133Z,99330.06
2022-11-22T05:35:29.564Z,99332.66
2022-11-22T05:37:59.495Z,99338.72
2022-11-22T05:40:28.352Z,99343.91
2022-11-22T05:42:57.993Z,99349.94
2022-11-22T05:45:26.688Z,99341.31
2022-11-22T05:47:54.920Z,99339.59
2022-11-22T05:50:23.945Z,99343.03
2022-11-22T05:52:52.207Z,99343.03
2022-11-22T05:55:21.934Z,99340.44
2022-11-22T05:57:50.177Z,99340.41
2022-11-22T06:00:20.419Z,99348.22
2022-11-22T06:02:48.691Z,99353.41
2022-11-22T06:05:17.143Z,99339.56
2022-11-22T06:07:45.821Z,99327.41
2022-11-22T06:10:14.193Z,99337.81
2022-11-22T06:12:43.770Z,99337.81
2022-11-22T06:15:12.557Z,99337.81
2022-11-22T06:17:40.779Z,99338.66
2022-11-22T06:20:11.137Z,99355.13
2022-11-22T06:22:39.463Z,99341.28
2022-11-22T06:25:09.382Z,99340.38
2022-11-22T06:27:37.645Z,99338.69
2022-11-22T06:30:09.688Z,99347.34
2022-11-22T06:32:38.062Z,99344.75
2022-11-22T06:35:07.407Z,99342.16
2022-11-22T06:37:35.647Z,99349.94
2022-11-22T06:40:04.239Z,99336.06
2022-11-22T06:42:32.472Z,99338.69
2022-11-22T06:45:00.697Z,99338.69
2022-11-22T06:47:30.216Z,99351.69
2022-11-22T06:49:58.453Z,99343.88
2022-11-22T06:52:26.694Z,99349.94
2022-11-22T06:54:54.928Z,99349.94
2022-11-22T06:57:23.079Z,99351.66
2022-11-22T06:59:51.278Z,99360.31
2022-11-22T07:02:19.519Z,99366.38
2022-11-22T07:05:09.797Z,99367.22
2022-11-22T07:07:37.383Z,99362.03
2022-11-22T07:10:06.830Z,99367.22
2022-11-22T07:12:35.136Z,99370.72
2022-11-22T07:15:03.418Z,99371.56
2022-11-22T07:17:31.688Z,99375.91
2022-11-22T07:20:01.556Z,99378.47
2022-11-22T07:22:29.780Z,99380.19
2022-11-22T07:24:58.009Z,99378.47
2022-11-22T07:27:26.283Z,99375.84
2022-11-22T07:29:54.507Z,99383.66
2022-11-22T07:32:22.774Z,99379.31
2022-11-22T07:34:51.568Z,99382.75
2022-11-22T07:37:21.168Z,99381.00
2022-11-22T07:39:49.496Z,99381.88
2022-11-22T07:42:21.151Z,99391.41
2022-11-22T07:44:51.949Z,99390.53
2022-11-22T07:47:23.057Z,99399.19
2022-11-22T07:49:51.701Z,99410.47
2022-11-22T07:52:21.307Z,99403.50
2022-11-22T07:54:49.659Z,99406.09
2022-11-22T07:57:17.857Z,99406.06
2022-11-22T07:59:46.012Z,99413.84
2022-11-22T08:02:14.286Z,99406.91
2022-11-22T08:04:42.509Z,99415.59
2022-11-22T08:07:11.116Z,99406.03
2022-11-22T08:09:40.731Z,99409.47
2022-11-22T08:12:09.099Z,99412.91
2022-11-22T08:14:37.632Z,99405.94
2022-11-22T08:17:05.868Z,99409.38
2022-11-22T08:19:35.933Z,99411.97
2022-11-22T08:22:04.149Z,99413.69
2022-11-22T08:24:32.790Z,99417.97
2022-11-22T08:27:02.607Z,99412.75
2022-11-22T08:29:31.080Z,99418.78
2022-11-22T08:31:59.819Z,99415.25
2022-11-22T08:34:28.065Z,99411.72
2022-11-22T08:36:56.365Z,99416.88
2022-11-22T08:39:24.645Z,99413.38
2022-11-22T08:41:52.893Z,99410.72
2022-11-22T08:44:22.566Z,99408.94
2022-11-22T08:46:51.726Z,99411.50
2022-11-22T08:49:20.092Z,99420.13
2022-11-22T08:51:48.445Z,99414.03
2022-11-22T08:54:17.350Z,99420.91
2022-11-22T08:56:45.664Z,99416.56
2022-11-22T08:59:13.906Z,99414.78
2022-11-22T09:01:43.673Z,99415.66
2022-11-22T09:04:12.113Z,99426.91
2022-11-22T09:09:44.457Z,99428.56
2022-11-22T09:12:13.066Z,99420.69
2022-11-22T09:14:41.694Z,99433.69
2022-11-22T09:17:17.313Z,99437.09
2022-11-22T09:19:46.241Z,99445.78
2022-11-22T09:22:14.510Z,99451.84
2022-11-22T09:24:42.660Z,99459.66
2022-11-22T09:27:10.896Z,99456.16
2022-11-22T09:29:39.119Z,99463.09
2022-11-22T09:32:12.087Z,99466.53
2022-11-22T09:34:40.313Z,99470.81
2022-11-22T09:37:08.552Z,99460.34
2022-11-22T09:39:36.736Z,99452.47
2022-11-22T09:42:38.542Z,99458.50
2022-11-22T09:45:36.684Z,99447.16
2022-11-22T09:48:23.098Z,99442.78
2022-11-22T09:51:04.290Z,99454.03
2022-11-22T09:53:39.314Z,99451.38
2022-11-22T09:56:13.279Z,99459.19
2022-11-22T09:58:47.696Z,99467.88
2022-11-22T10:01:23.487Z,99469.59
2022-11-22T10:04:01.733Z,99470.47
2022-11-22T10:06:35.257Z,99471.28
2022-11-22T10:09:24.503Z,99476.50
2022-11-22T10:11:58.372Z,99475.66
2022-11-22T10:14:46.408Z,99478.28
2022-11-22T10:17:31.083Z,99475.66
2022-11-22T10:20:08.179Z,99479.97
2022-11-22T10:22:36.671Z,99488.59
2022-11-22T10:25:17.294Z,99479.81
2022-11-22T10:27:50.188Z,99484.97
2022-11-22T10:30:21.791Z,99482.28
2022-11-22T10:33:01.744Z,99483.94
2022-11-22T10:35:49.946Z,99489.16
2022-11-22T10:39:07.429Z,99500.47
2022-11-22T10:41:51.394Z,99494.31
2022-11-22T10:44:34.676Z,99497.78
2022-11-22T10:47:13.533Z,99486.47
2022-11-22T10:49:53.734Z,99492.63
2022-11-22T10:52:35.494Z,99486.50
2022-11-22T10:55:19.551Z,99488.19
2022-11-22T10:57:58.840Z,99491.63
2022-11-22T11:00:31.631Z,99469.84
2022-11-22T11:03:27.255Z,99488.16
2022-11-22T11:06:21.740Z,99479.44
2022-11-22T11:09:48.108Z,99476.69
2022-11-22T11:11:46.905Z,99480.94
2022-11-22T11:14:30.004Z,99473.78
2022-11-22T11:16:59.420Z,99468.56
2022-11-22T11:19:31.623Z,99469.63
2022-11-22T11:22:12.997Z,99462.84
2022-11-22T11:24:43.750Z,99460.34
2022-11-22T11:27:13.238Z,99457.81
2022-11-22T11:29:45.121Z,99467.41
2022-11-22T11:32:17.770Z,99462.19
2022-11-22T11:34:59.491Z,99463.94
2022-11-22T11:37:34.765Z,99464.84
2022-11-22T11:40:04.751Z,99464.84
2022-11-22T11:42:37.118Z,99469.16
2022-11-22T11:45:29.166Z,99462.03
2022-11-22T11:47:57.556Z,99454.94
2022-11-22T11:50:28.791Z,99460.09
2022-11-22T11:53:04.052Z,99454.78
2022-11-22T11:55:37.331Z,99463.38
2022-11-22T11:58:17.921Z,99464.13
2022-11-22T12:00:47.200Z,99463.13
2022-11-22T12:03:20.382Z,99449.13
2022-11-22T12:05:48.622Z,99459.44
2022-11-22T12:08:33.141Z,99457.63
2022-11-22T12:11:08.840Z,99451.44
2022-11-22T12:14:12.323Z,99455.69
2022-11-22T12:16:36.907Z,99452.97
2022-11-22T12:19:24.394Z,99451.22
2022-11-22T12:22:00.223Z,99447.75
2022-11-22T12:25:02.642Z,99455.59
2022-11-22T12:27:26.998Z,99452.09
2022-11-22T12:29:55.467Z,99452.91
2022-11-22T12:32:29.291Z,99445.97
2022-11-22T12:35:03.279Z,99458.19
2022-11-22T12:37:38.222Z,99452.03
2022-11-22T12:40:16.284Z,99448.66
2022-11-22T12:42:50.226Z,99460.75
2022-11-22T12:45:28.556Z,99458.19
2022-11-22T12:48:02.029Z,99459.13
2022-11-22T12:50:39.292Z,99456.56
2022-11-22T12:53:14.697Z,99455.75
2022-11-22T12:55:49.967Z,99454.94
2022-11-22T12:58:25.743Z,99454.13
2022-11-22T13:01:08.697Z,99449.81
2022-11-22T13:03:41.424Z,99454.22
2022-11-22T13:06:11.880Z,99462.13
2022-11-22T13:08:48.806Z,99463.91
2022-11-22T13:11:28.437Z,99471.81
2022-11-22T13:14:04.648Z,99463.97
2022-11-22T13:16:33.649Z,99481.47
2022-11-22T13:19:05.675Z,99477.13
2022-11-22T13:21:46.808Z,99479.81
2022-11-22T13:24:30.749Z,99477.25
2022-11-22T13:27:11.225Z,99486.88
2022-11-22T13:29:43.185Z,99477.31
2022-11-22T13:32:20.838Z,99482.56
2022-11-22T13:35:19.596Z,99483.47
2022-11-22T13:37:51.480Z,99492.22
2022-11-22T13:40:31.151Z,99491.31
2022-11-22T13:43:51.730Z,99482.69
2022-11-22T13:46:54.073Z,99493.13
2022-11-22T13:49:49.464Z,99484.41
2022-11-22T13:52:52.195Z,99474.00
2022-11-22T13:55:30.575Z,99474.00
2022-11-22T13:58:55.588Z,99479.28
2022-11-22T14:02:03.171Z,99475.78
2022-11-22T14:04:43.412Z,99472.31
2022-11-22T14:07:38.420Z,99460.16
2022-11-22T14:10:33.090Z,99472.38
2022-11-22T14:13:20.485Z,99467.16
2022-11-22T14:16:01.141Z,99464.53
2022-11-22T14:18:52.401Z,99462.84
2022-11-22T14:21:42.067Z,99475.06
2022-11-22T14:24:25.754Z,99469.00
2022-11-22T14:27:01.513Z,99469.03
2022-11-22T14:30:05.247Z,99468.19
2022-11-22T14:32:56.960Z,99472.56
2022-11-22T14:35:31.426Z,99470.84
2022-11-22T14:38:11.424Z,99467.34
2022-11-22T14:40:40.949Z,99468.25
2022-11-22T14:43:28.904Z,99470.03
2022-11-22T14:46:02.891Z,99465.69
2022-11-22T14:48:38.571Z,99474.41
2022-11-22T14:51:15.539Z,99475.31
2022-11-22T14:53:47.484Z,99470.16
2022-11-22T14:56:19.165Z,99477.97
2022-11-22T14:58:59.984Z,99469.31
2022-11-22T15:02:07.312Z,99470.22
2022-11-22T15:09:10.055Z,99465.03
2022-11-22T15:09:10.450Z,99458.13
2022-11-22T15:11:36.575Z,99447.72
2022-11-22T15:14:49.435Z,99450.34
2022-11-22T15:57:48.925Z,99459.25
2022-11-22T16:00:24.383Z,99470.53
2022-11-22T16:02:56.691Z,99465.31
2022-11-22T16:06:05.313Z,99474.06
2022-11-22T16:08:21.941Z,99462.72
2022-11-22T16:10:52.080Z,99471.44
2022-11-22T16:13:29.935Z,99464.47
2022-11-22T16:16:20.447Z,99467.94
2022-11-22T16:18:50.813Z,99479.28
2022-11-22T16:21:29.305Z,99476.66
2022-11-22T16:24:16.829Z,99488.88
2022-11-22T16:26:56.285Z,99483.66
2022-11-22T16:29:32.882Z,99485.41
2022-11-22T16:32:03.437Z,99486.25
2022-11-22T16:34:31.730Z,99486.25
2022-11-22T16:37:00.048Z,99487.16
2022-11-22T16:39:29.166Z,99492.38
2022-11-22T16:41:57.691Z,99487.16
2022-11-22T16:44:26.577Z,99481.94
2022-11-22T16:46:56.293Z,99492.38
2022-11-22T16:49:24.484Z,99495.00
2022-11-22T16:51:52.841Z,99496.75
2022-11-22T16:54:23.809Z,99495.00
2022-11-22T16:56:52.147Z,99492.38
2022-11-22T16:59:20.399Z,99491.53
2022-11-22T17:01:48.839Z,99493.25
2022-11-22T17:04:24.247Z,99488.91
2022-11-22T17:06:52.782Z,99489.81
2022-11-22T17:09:21.281Z,99492.44
2022-11-22T17:11:49.616Z,99490.69
2022-11-22T17:14:19.634Z,99490.66
2022-11-22T17:16:47.997Z,99501.09
2022-11-22T17:19:45.410Z,99500.22
2022-11-22T17:22:07.085Z,99501.09
2022-11-22T17:24:35.909Z,99505.44
2022-11-22T17:27:04.281Z,99507.19
2022-11-22T17:29:50.742Z,99512.41
2022-11-22T17:32:19.902Z,99508.09
2022-11-22T17:34:48.248Z,99509.81
2022-11-22T17:37:17.977Z,99515.03
2022-11-22T17:39:47.649Z,99517.63
2022-11-22T17:42:18.128Z,99512.41
2022-11-22T17:44:46.321Z,99521.09
2022-11-22T17:47:14.564Z,99510.66
2022-11-22T17:49:43.179Z,99513.25
2022-11-22T17:52:11.462Z,99512.41
2022-11-22T17:54:41.180Z,99513.25
2022-11-22T17:57:09.496Z,99515.00
2022-11-22T17:59:37.722Z,99505.44
2022-11-22T18:02:06.629Z,99506.34
2022-11-22T18:04:38.399Z,99509.84
2022-11-22T18:07:06.774Z,99506.38
2022-11-22T18:09:35.573Z,99510.72
2022-11-22T18:12:05.849Z,99511.56
2022-11-22T18:14:34.667Z,99515.91
2022-11-22T18:17:02.978Z,99521.09
2022-11-22T18:19:33.271Z,99514.16
2022-11-22T18:22:01.741Z,99513.28
2022-11-22T18:24:30.016Z,99514.16
2022-11-22T18:26:58.368Z,99518.47
2022-11-22T18:29:43.442Z,99521.09
2022-11-22T18:32:12.442Z,99520.19
2022-11-22T18:34:41.450Z,99535.84
2022-11-22T18:37:09.805Z,99529.72
2022-11-22T18:39:39.988Z,99530.59
2022-11-22T18:42:12.143Z,99525.38
2022-11-22T18:44:41.932Z,99529.72
2022-11-22T18:47:10.331Z,99530.59
2022-11-22T18:49:38.635Z,99525.38
2022-11-22T18:52:09.672Z,99529.72
2022-11-22T18:54:40.211Z,99534.03
2022-11-22T18:57:08.971Z,99533.19
2022-11-22T18:59:37.324Z,99528.81
2022-11-22T19:02:07.482Z,99531.44
2022-11-22T19:04:35.912Z,99530.56
2022-11-22T19:07:04.188Z,99530.59
2022-11-22T19:09:32.375Z,99529.78
2022-11-22T19:12:02.512Z,99527.16
2022-11-22T19:14:31.073Z,99535.88
2022-11-22T19:16:59.493Z,99535.88
2022-11-22T19:19:32.143Z,99539.34
2022-11-22T19:22:02.928Z,99542.81
2022-11-22T19:24:31.595Z,99533.25
2022-11-22T19:27:00.132Z,99533.25
2022-11-22T19:30:07.706Z,99527.16
2022-11-22T19:32:38.350Z,99522.00
2022-11-22T19:35:36.630Z,99525.47
2022-11-22T19:38:10.473Z,99523.66
2022-11-22T19:40:52.954Z,99530.63
2022-11-22T19:43:23.265Z,99520.22
2022-11-22T19:45:53.229Z,99520.22
2022-11-22T19:48:35.459Z,99520.25
2022-11-22T19:51:11.989Z,99511.63
2022-11-22T19:53:45.236Z,99522.00
2022-11-22T19:56:18.396Z,99516.78
2022-11-22T19:58:55.641Z,99522.84
2022-11-22T20:01:40.601Z,99527.16
2022-11-22T20:04:16.744Z,99519.34
2022-11-22T20:09:32.543Z,99521.00
2022-11-22T20:12:08.651Z,99527.97
2022-11-22T20:14:39.110Z,99527.06
2022-11-22T20:17:21.989Z,99514.91
2022-11-22T20:19:52.279Z,99526.22
2022-11-22T20:22:42.168Z,99532.25
2022-11-22T20:25:15.413Z,99528.81
2022-11-22T20:27:48.355Z,99537.47
2022-11-22T20:30:24.351Z,99532.28
2022-11-22T20:32:54.590Z,99535.81
2022-11-22T20:35:23.456Z,99534.94
2022-11-22T20:37:54.552Z,99534.94
2022-11-22T20:40:25.457Z,99527.16
2022-11-22T20:43:06.136Z,99539.31
2022-11-22T20:45:35.548Z,99548.00
2022-11-22T20:48:08.170Z,99544.53
2022-11-22T20:50:38.029Z,99544.56
2022-11-22T20:53:23.556Z,99543.69
2022-11-22T20:55:55.099Z,99549.78
2022-11-22T20:58:24.814Z,99548.88
2022-11-22T21:00:53.503Z,99541.09
2022-11-22T21:03:50.852Z,99545.41
2022-11-22T21:06:21.762Z,99524.66
2022-11-22T21:08:53.158Z,99532.38
2022-11-22T21:11:25.368Z,99544.56
2022-11-22T21:13:56.392Z,99543.69
2022-11-22T21:16:28.612Z,99542.78
2022-11-22T21:19:05.784Z,99548.03
2022-11-22T21:21:42.540Z,99544.59
2022-11-22T21:24:28.917Z,99535.88
2022-11-22T21:27:01.817Z,99536.69
2022-11-22T21:29:37.141Z,99542.78
2022-11-22T21:32:08.922Z,99546.28
2022-11-22T21:34:38.652Z,99552.31
2022-11-22T21:37:07.825Z,99542.78
2022-11-22T21:39:39.840Z,99555.78
2022-11-22T21:42:09.844Z,99554.91
2022-11-22T21:44:43.004Z,99540.22
2022-11-22T21:47:15.335Z,99559.25
2022-11-22T21:49:45.043Z,99548.81
2022-11-22T21:52:16.573Z,99549.75
2022-11-22T21:54:47.099Z,99554.88
2022-11-22T21:57:15.474Z,99567.03
2022-11-22T21:59:47.012Z,99559.16
2022-11-22T22:05:18.655Z,99562.66
2022-11-22T22:07:53.147Z,99560.09
2022-11-22T22:10:23.657Z,99556.59
2022-11-22T22:12:53.739Z,99570.44
2022-11-22T22:15:24.371Z,99576.53
2022-11-22T22:18:05.712Z,99564.38
2022-11-22T22:20:35.569Z,99569.59
2022-11-22T22:23:10.744Z,99568.72
2022-11-22T22:26:00.684Z,99568.75
2022-11-22T22:28:33.063Z,99569.59
2022-11-22T22:31:13.630Z,99570.44
2022-11-22T22:33:47.290Z,99551.41
2022-11-22T22:36:19.155Z,99558.34
2022-11-22T22:39:12.164Z,99571.34
2022-11-22T22:41:56.165Z,99571.31
2022-11-22T22:47:22.966Z,99557.41
2022-11-22T22:50:02.570Z,99570.41
2022-11-22T22:52:43.921Z,99574.75
2022-11-22T22:55:15.518Z,99575.63
2022-11-22T22:57:55.322Z,99573.00
2022-11-22T23:00:24.737Z,99571.25
2022-11-22T23:02:55.786Z,99579.06
2022-11-22T23:05:24.750Z,99574.72
2022-11-22T23:07:55.908Z,99568.59
2022-11-22T23:10:49.756Z,99561.66
2022-11-22T23:13:51.069Z,99564.31
2022-11-22T23:16:22.527Z,99561.66
2022-11-22T23:18:52.043Z,99566.84
2022-11-22T23:21:27.095Z,99566.88
2022-11-22T23:24:02.272Z,99565.97
2022-11-22T23:26:34.849Z,99562.44
2022-11-22T23:29:07.480Z,99568.53
2022-11-22T23:31:37.803Z,99565.03
2022-11-22T23:34:21.776Z,99562.41
2022-11-22T23:36:53.612Z,99560.63
2022-11-22T23:39:27.680Z,99564.09
2022-11-22T23:41:56.164Z,99562.34
2022-11-22T23:44:41.019Z,99564.94
2022-11-22T23:47:09.325Z,99567.53
2022-11-22T23:49:39.917Z,99570.97
2022-11-22T23:52:09.760Z,99557.94
2022-11-22T23:54:39.317Z,99564.00
2022-11-22T23:57:08.156Z,99577.00
2022-11-22T23:59:38.173Z,99575.31
